createdAt,value
2022-11-18T00:00:42.651Z,-0.70
2022-11-18T00:02:29.764Z,-0.60
2022-11-18T00:04:17.178Z,-0.70
2022-11-18T00:06:04.551Z,-0.70
2022-11-18T00:07:51.562Z,-0.70
2022-11-18T00:09:39.731Z,-0.70
2022-11-18T00:11:45.531Z,-0.70
2022-11-18T00:13:51.117Z,-0.80
2022-11-18T00:15:38.567Z,-0.80
2022-11-18T00:17:25.625Z,-0.90
2022-11-18T00:19:12.664Z,-0.90
2022-11-18T00:21:12.203Z,-0.90
2022-11-18T00:22:59.935Z,-0.90
2022-11-18T00:24:48.232Z,-0.90
2022-11-18T00:26:36.331Z,-0.90
2022-11-18T00:28:23.617Z,-0.90
2022-11-18T00:30:11.415Z,-0.90
2022-11-18T00:31:59.218Z,-0.80
2022-11-18T00:33:46.201Z,-0.90
2022-11-18T00:35:33.193Z,-1.00
2022-11-18T00:37:20.558Z,-1.00
2022-11-18T00:39:08.158Z,-1.00
2022-11-18T00:41:07.826Z,-1.00
2022-11-18T00:42:56.400Z,-1.00
2022-11-18T00:44:43.401Z,-1.00
2022-11-18T00:46:30.405Z,-1.00
2022-11-18T00:48:21.682Z,-1.00
2022-11-18T00:50:09.206Z,-1.00
2022-11-18T00:51:56.373Z,-1.00
2022-11-18T00:53:45.350Z,-1.00
2022-11-18T00:55:32.553Z,-1.00
2022-11-18T00:57:19.587Z,-1.00
2022-11-18T00:59:07.144Z,-1.00
2022-11-18T01:00:54.257Z,-1.00
2022-11-18T01:02:41.345Z,-0.90
2022-11-18T01:04:28.835Z,-0.90
2022-11-18T01:06:16.033Z,-0.90
2022-11-18T01:08:03.192Z,-1.00
2022-11-18T01:09:50.608Z,-1.00
2022-11-18T01:11:56.061Z,-1.00
2022-11-18T01:13:43.085Z,-1.00
2022-11-18T01:15:30.414Z,-1.00
2022-11-18T01:17:17.360Z,-1.00
2022-11-18T01:19:04.412Z,-1.00
2022-11-18T01:20:51.996Z,-1.00
2022-11-18T01:22:38.983Z,-1.00
2022-11-18T01:24:25.973Z,-1.10
2022-11-18T01:26:15.455Z,-1.00
2022-11-18T01:28:02.379Z,-1.00
2022-11-18T01:29:49.773Z,-1.00
2022-11-18T01:31:55.240Z,-1.00
2022-11-18T01:33:43.462Z,-1.10
2022-11-18T01:35:34.423Z,-1.10
2022-11-18T01:37:22.000Z,-1.20
2022-11-18T01:39:09.115Z,-1.10
2022-11-18T01:40:56.804Z,-1.10
2022-11-18T01:42:43.957Z,-1.10
2022-11-18T01:45:00.928Z,-1.20
2022-11-18T01:46:47.960Z,-1.20
2022-11-18T01:48:35.746Z,-1.30
2022-11-18T01:50:24.432Z,-1.40
2022-11-18T01:52:12.301Z,-1.40
2022-11-18T01:54:13.050Z,-1.40
2022-11-18T01:56:05.977Z,-1.40
2022-11-18T01:58:02.056Z,-1.40
2022-11-18T01:59:52.399Z,-1.40
2022-11-18T02:01:39.926Z,-1.40
2022-11-18T02:03:27.799Z,-1.40
2022-11-18T02:05:16.764Z,-1.40
2022-11-18T02:07:03.877Z,-1.40
2022-11-18T02:08:51.876Z,-1.40
2022-11-18T02:10:39.195Z,-1.40
2022-11-18T02:12:26.176Z,-1.40
2022-11-18T02:14:13.476Z,-1.30
2022-11-18T02:16:15.713Z,-1.30
2022-11-18T02:18:25.742Z,-1.30
2022-11-18T02:20:34.444Z,-1.30
2022-11-18T02:22:52.311Z,-1.40
2022-11-18T02:24:51.880Z,-1.40
2022-11-18T02:27:04.647Z,-1.40
2022-11-18T02:28:59.971Z,-1.40
2022-11-18T02:31:02.156Z,-1.40
2022-11-18T02:33:00.316Z,-1.40
2022-11-18T02:35:24.713Z,-1.40
2022-11-18T02:37:30.269Z,-1.50
2022-11-18T02:39:22.995Z,-1.50
2022-11-18T02:41:15.699Z,-1.50
2022-11-18T02:43:07.642Z,-1.40
2022-11-18T02:45:00.199Z,-1.40
2022-11-18T02:46:51.633Z,-1.50
2022-11-18T02:48:44.770Z,-1.50
2022-11-18T02:50:35.100Z,-1.50
2022-11-18T02:52:23.291Z,-1.50
2022-11-18T02:54:10.386Z,-1.40
2022-11-18T02:55:58.706Z,-1.40
2022-11-18T02:57:47.905Z,-1.40
2022-11-18T02:59:35.056Z,-1.40
2022-11-18T03:01:34.301Z,-1.30
2022-11-18T03:03:34.546Z,-1.30
2022-11-18T03:05:32.727Z,-1.40
2022-11-18T03:07:32.243Z,-1.40
2022-11-18T03:09:29.342Z,-1.40
2022-11-18T03:11:23.050Z,-1.40
2022-11-18T03:13:37.064Z,-1.40
2022-11-18T03:15:34.184Z,-1.40
2022-11-18T03:17:33.859Z,-1.50
2022-11-18T03:19:24.111Z,-1.50
2022-11-18T03:21:16.143Z,-1.50
2022-11-18T03:23:35.048Z,-1.50
2022-11-18T03:25:44.243Z,-1.50
2022-11-18T03:27:37.075Z,-1.50
2022-11-18T03:29:34.098Z,-1.50
2022-11-18T03:31:29.854Z,-1.40
2022-11-18T03:33:22.505Z,-1.50
2022-11-18T03:35:21.861Z,-1.50
2022-11-18T03:37:12.646Z,-1.50
2022-11-18T03:39:03.435Z,-1.50
2022-11-18T03:40:55.344Z,-1.60
2022-11-18T03:42:46.454Z,-1.60
2022-11-18T03:44:37.619Z,-1.70
2022-11-18T03:47:04.533Z,-1.70
2022-11-18T03:48:55.263Z,-1.80
2022-11-18T03:50:50.744Z,-1.80
2022-11-18T03:52:39.222Z,-1.80
2022-11-18T03:54:29.920Z,-1.80
2022-11-18T03:56:21.578Z,-1.80
2022-11-18T03:58:29.962Z,-1.80
2022-11-18T04:00:19.361Z,-1.80
2022-11-18T04:02:09.042Z,-1.80
2022-11-18T04:03:56.222Z,-1.80
2022-11-18T04:05:43.941Z,-1.80
2022-11-18T04:07:34.220Z,-1.80
2022-11-18T04:09:33.604Z,-1.80
2022-11-18T04:11:46.608Z,-1.80
2022-11-18T04:13:36.757Z,-1.70
2022-11-18T04:15:26.520Z,-1.70
2022-11-18T04:17:20.974Z,-1.70
2022-11-18T04:19:08.770Z,-1.70
2022-11-18T04:20:55.758Z,-1.70
2022-11-18T04:22:42.829Z,-1.70
2022-11-18T04:24:30.188Z,-1.60
2022-11-18T04:26:18.453Z,-1.60
2022-11-18T04:28:06.389Z,-1.60
2022-11-18T04:29:53.685Z,-1.60
2022-11-18T04:31:40.696Z,-1.60
2022-11-18T04:33:27.719Z,-1.60
2022-11-18T04:35:15.710Z,-1.60
2022-11-18T04:37:02.741Z,-1.60
2022-11-18T04:38:49.728Z,-1.60
2022-11-18T04:40:37.013Z,-1.60
2022-11-18T04:42:23.983Z,-1.60
2022-11-18T04:44:13.433Z,-1.60
2022-11-18T04:46:00.839Z,-1.60
2022-11-18T04:47:47.873Z,-1.60
2022-11-18T04:49:35.767Z,-1.60
2022-11-18T04:51:23.077Z,-1.60
2022-11-18T04:53:10.137Z,-1.70
2022-11-18T04:54:57.222Z,-1.70
2022-11-18T04:56:48.995Z,-1.70
2022-11-18T04:58:36.585Z,-1.70
2022-11-18T05:00:23.626Z,-1.80
2022-11-18T05:02:11.317Z,-1.70
2022-11-18T05:04:00.459Z,-1.70
2022-11-18T05:05:47.570Z,-1.70
2022-11-18T05:07:34.944Z,-1.70
2022-11-18T05:09:24.908Z,-1.70
2022-11-18T05:11:34.322Z,-1.70
2022-11-18T05:13:21.662Z,-1.70
2022-11-18T05:15:08.965Z,-1.70
2022-11-18T05:16:57.648Z,-1.70
2022-11-18T05:18:45.280Z,-1.70
2022-11-18T05:20:34.241Z,-1.60
2022-11-18T05:22:23.530Z,-1.60
2022-11-18T05:24:11.012Z,-1.60
2022-11-18T05:26:02.301Z,-1.60
2022-11-18T05:27:49.679Z,-1.60
2022-11-18T05:29:37.034Z,-1.60
2022-11-18T05:31:24.038Z,-1.60
2022-11-18T05:33:10.970Z,-1.60
2022-11-18T05:34:58.449Z,-1.60
2022-11-18T05:36:45.658Z,-1.60
2022-11-18T05:38:33.875Z,-1.50
2022-11-18T05:40:21.148Z,-1.50
2022-11-18T05:42:28.674Z,-1.50
2022-11-18T05:44:15.942Z,-1.50
2022-11-18T05:46:04.513Z,-1.60
2022-11-18T05:48:00.846Z,-1.60
2022-11-18T05:49:48.020Z,-1.60
2022-11-18T05:51:36.001Z,-1.50
2022-11-18T05:53:25.196Z,-1.60
2022-11-18T05:55:14.163Z,-1.60
2022-11-18T05:57:01.660Z,-1.50
2022-11-18T05:58:48.839Z,-1.50
2022-11-18T06:00:36.741Z,-1.50
2022-11-18T06:02:24.853Z,-1.50
2022-11-18T06:04:17.702Z,-1.50
2022-11-18T06:06:07.328Z,-1.60
2022-11-18T06:07:57.934Z,-1.60
2022-11-18T06:09:48.965Z,-1.60
2022-11-18T06:11:45.266Z,-1.60
2022-11-18T06:13:39.657Z,-1.60
2022-11-18T06:15:31.785Z,-1.50
2022-11-18T06:17:26.215Z,-1.50
2022-11-18T06:19:14.073Z,-1.50
2022-11-18T06:21:04.485Z,-1.50
2022-11-18T06:22:56.007Z,-1.50
2022-11-18T06:24:46.856Z,-1.50
2022-11-18T06:26:34.498Z,-1.50
2022-11-18T06:28:22.886Z,-1.50
2022-11-18T06:30:11.691Z,-1.50
2022-11-18T06:31:58.875Z,-1.60
2022-11-18T06:33:45.996Z,-1.50
2022-11-18T06:35:33.671Z,-1.50
2022-11-18T06:37:21.263Z,-1.50
2022-11-18T06:39:08.542Z,-1.50
2022-11-18T06:41:02.446Z,-1.60
2022-11-18T06:43:08.458Z,-1.60
2022-11-18T06:44:55.742Z,-1.60
2022-11-18T06:46:58.334Z,-1.60
2022-11-18T06:48:45.571Z,-1.60
2022-11-18T06:50:32.761Z,-1.60
2022-11-18T06:52:21.569Z,-1.60
2022-11-18T06:54:10.921Z,-1.60
2022-11-18T06:56:09.954Z,-1.70
2022-11-18T06:57:57.467Z,-1.70
2022-11-18T06:59:44.558Z,-1.70
2022-11-18T07:01:35.595Z,-1.60
2022-11-18T07:03:23.189Z,-1.60
2022-11-18T07:05:10.401Z,-1.60
2022-11-18T07:06:57.757Z,-1.60
2022-11-18T07:08:45.535Z,-1.70
2022-11-18T07:10:32.625Z,-1.60
2022-11-18T07:12:20.897Z,-1.70
2022-11-18T07:14:09.705Z,-1.60
2022-11-18T07:16:01.500Z,-1.60
2022-11-18T07:17:48.666Z,-1.60
2022-11-18T07:19:36.255Z,-1.50
2022-11-18T07:21:25.868Z,-1.60
2022-11-18T07:23:12.896Z,-1.60
2022-11-18T07:25:00.440Z,-1.60
2022-11-18T07:26:47.587Z,-1.60
2022-11-18T07:28:35.114Z,-1.60
2022-11-18T07:30:22.562Z,-1.60
2022-11-18T07:32:09.713Z,-1.60
2022-11-18T07:33:56.819Z,-1.60
2022-11-18T07:35:44.578Z,-1.50
2022-11-18T07:37:31.644Z,-1.50
2022-11-18T07:39:18.905Z,-1.40
2022-11-18T07:41:09.709Z,-1.30
2022-11-18T07:42:56.803Z,-1.30
2022-11-18T07:44:43.955Z,-1.40
2022-11-18T07:46:39.072Z,-1.40
2022-11-18T07:48:26.225Z,-1.40
2022-11-18T07:50:13.351Z,-1.40
2022-11-18T07:52:00.799Z,-1.40
2022-11-18T07:53:48.199Z,-1.40
2022-11-18T07:55:35.248Z,-1.40
2022-11-18T07:57:22.679Z,-1.50
2022-11-18T07:59:09.845Z,-1.40
2022-11-18T08:00:56.976Z,-1.30
2022-11-18T08:02:44.484Z,-1.30
2022-11-18T08:04:31.666Z,-1.30
2022-11-18T08:06:19.873Z,-1.40
2022-11-18T08:08:07.444Z,-1.50
2022-11-18T08:09:54.557Z,-1.50
2022-11-18T08:11:44.294Z,-1.40
2022-11-18T08:13:31.807Z,-1.50
2022-11-18T08:15:18.923Z,-1.50
2022-11-18T08:17:06.082Z,-1.40
2022-11-18T08:18:54.165Z,-1.40
2022-11-18T08:20:41.262Z,-1.40
2022-11-18T08:22:28.508Z,-1.40
2022-11-18T08:24:15.856Z,-1.40
2022-11-18T08:26:09.044Z,-1.40
2022-11-18T08:27:56.135Z,-1.40
2022-11-18T08:29:43.553Z,-1.50
2022-11-18T08:31:31.207Z,-1.40
2022-11-18T08:33:18.384Z,-1.40
2022-11-18T08:35:10.877Z,-1.40
2022-11-18T08:36:58.888Z,-1.50
2022-11-18T08:38:46.213Z,-1.50
2022-11-18T08:40:34.468Z,-1.50
2022-11-18T08:42:26.852Z,-1.60
2022-11-18T08:44:19.637Z,-1.60
2022-11-18T08:46:11.151Z,-1.60
2022-11-18T08:47:59.058Z,-1.60
2022-11-18T08:49:46.114Z,-1.70
2022-11-18T08:51:33.959Z,-1.70
2022-11-18T08:53:21.151Z,-1.70
2022-11-18T08:55:08.620Z,-1.70
2022-11-18T08:56:56.094Z,-1.70
2022-11-18T08:58:44.006Z,-1.60
2022-11-18T09:00:31.104Z,-1.70
2022-11-18T09:02:21.976Z,-1.70
2022-11-18T09:04:09.248Z,-1.70
2022-11-18T09:06:09.228Z,-1.60
2022-11-18T09:07:56.731Z,-1.70
2022-11-18T09:09:44.070Z,-1.70
2022-11-18T09:11:31.169Z,-1.70
2022-11-18T09:15:29.903Z,-1.80
2022-11-18T09:17:17.905Z,-1.70
2022-11-18T09:19:46.276Z,-1.70
2022-11-18T09:21:36.846Z,-1.70
2022-11-18T09:23:27.150Z,-1.60
2022-11-18T09:25:14.882Z,-1.70
2022-11-18T09:27:09.690Z,-1.70
2022-11-18T09:28:59.641Z,-1.60
2022-11-18T09:30:47.115Z,-1.60
2022-11-18T09:32:34.608Z,-1.60
2022-11-18T09:34:22.646Z,-1.50
2022-11-18T09:36:19.550Z,-1.50
2022-11-18T09:38:06.530Z,-1.60
2022-11-18T09:39:53.812Z,-1.60
2022-11-18T09:42:09.707Z,-1.60
2022-11-18T09:44:30.927Z,-1.60
2022-11-18T09:46:47.350Z,-1.50
2022-11-18T09:48:56.309Z,-1.60
2022-11-18T09:50:51.140Z,-1.50
2022-11-18T09:52:56.234Z,-1.50
2022-11-18T09:54:44.149Z,-1.50
2022-11-18T09:56:31.408Z,-1.40
2022-11-18T09:58:34.050Z,-1.40
2022-11-18T10:00:23.398Z,-1.40
2022-11-18T10:02:13.772Z,-1.40
2022-11-18T10:04:01.128Z,-1.40
2022-11-18T10:05:57.201Z,-1.40
2022-11-18T10:08:05.223Z,-1.40
2022-11-18T10:09:56.575Z,-1.30
2022-11-18T10:12:04.353Z,-1.30
2022-11-18T10:13:51.340Z,-1.30
2022-11-18T10:15:53.518Z,-1.30
2022-11-18T10:18:59.194Z,-1.30
2022-11-18T10:21:04.520Z,-1.30
2022-11-18T10:23:17.337Z,-1.30
2022-11-18T10:25:15.865Z,-1.20
2022-11-18T10:27:13.525Z,-1.20
2022-11-18T10:29:03.762Z,-1.20
2022-11-18T10:30:52.543Z,-1.10
2022-11-18T10:32:55.406Z,-1.20
2022-11-18T10:34:55.088Z,-1.20
2022-11-18T10:37:34.750Z,-1.10
2022-11-18T10:39:27.134Z,-1.00
2022-11-18T10:41:18.490Z,-1.00
2022-11-18T10:43:05.682Z,-0.90
2022-11-18T10:44:53.182Z,-0.80
2022-11-18T10:46:43.556Z,-0.80
2022-11-18T10:48:30.904Z,-0.90
2022-11-18T10:50:38.480Z,-1.00
2022-11-18T10:52:26.728Z,-0.90
2022-11-18T10:54:15.048Z,-1.00
2022-11-18T10:56:06.213Z,-0.90
2022-11-18T10:58:18.709Z,-0.90
2022-11-18T11:00:06.671Z,-0.90
2022-11-18T11:02:09.468Z,-0.90
2022-11-18T11:04:13.541Z,-0.90
2022-11-18T11:06:38.202Z,-0.90
2022-11-18T11:08:40.065Z,-0.90
2022-11-18T11:10:27.321Z,-0.90
2022-11-18T11:12:18.082Z,-0.90
2022-11-18T11:14:23.633Z,-0.90
2022-11-18T11:16:15.494Z,-0.80
2022-11-18T11:18:42.391Z,-0.80
2022-11-18T11:20:29.871Z,-0.70
2022-11-18T11:22:17.779Z,-0.70
2022-11-18T11:24:12.588Z,-0.70
2022-11-18T11:28:31.113Z,-0.80
2022-11-18T11:30:22.533Z,-0.70
2022-11-18T11:32:31.227Z,-0.80
2022-11-18T11:34:23.465Z,-0.80
2022-11-18T11:36:33.002Z,-0.70
2022-11-18T11:38:47.512Z,-0.70
2022-11-18T11:40:59.835Z,-0.70
2022-11-18T11:43:35.364Z,-0.80
2022-11-18T11:45:26.322Z,-0.90
2022-11-18T11:47:47.094Z,-0.80
2022-11-18T11:49:59.430Z,-0.80
2022-11-18T11:51:58.403Z,-0.60
2022-11-18T11:54:14.633Z,-0.60
2022-11-18T11:56:35.097Z,-0.50
2022-11-18T11:58:46.944Z,-0.40
2022-11-18T12:00:41.134Z,-0.40
2022-11-18T12:03:02.617Z,-0.50
2022-11-18T12:04:58.927Z,-0.40
2022-11-18T12:06:50.111Z,-0.40
2022-11-18T12:08:40.906Z,-0.40
2022-11-18T12:10:49.940Z,-0.40
2022-11-18T12:13:29.683Z,-0.30
2022-11-18T12:15:38.295Z,-0.30
2022-11-18T12:17:34.323Z,-0.30
2022-11-18T12:19:23.302Z,-0.30
2022-11-18T12:21:48.644Z,-0.30
2022-11-18T12:23:36.093Z,-0.40
2022-11-18T12:25:44.335Z,-0.50
2022-11-18T12:27:31.648Z,-0.60
2022-11-18T12:29:19.201Z,-0.60
2022-11-18T12:31:18.653Z,-0.50
2022-11-18T12:33:15.674Z,-0.50
2022-11-18T12:35:13.818Z,-0.50
2022-11-18T12:37:26.079Z,-0.50
2022-11-18T12:39:25.348Z,-0.50
2022-11-18T12:42:00.479Z,-0.50
2022-11-18T12:43:50.934Z,-0.50
2022-11-18T12:45:50.061Z,-0.50
2022-11-18T12:47:43.217Z,-0.50
2022-11-18T12:49:30.453Z,-0.50
2022-11-18T12:51:19.185Z,-0.40
2022-11-18T12:53:09.028Z,-0.40
2022-11-18T12:55:04.705Z,-0.40
2022-11-18T12:56:52.205Z,-0.30
2022-11-18T12:58:48.412Z,-0.10
2022-11-18T13:00:52.327Z,-0.20
2022-11-18T13:02:40.000Z,-0.30
2022-11-18T13:04:27.271Z,-0.40
2022-11-18T13:06:28.489Z,-0.40
2022-11-18T13:08:18.331Z,-0.40
2022-11-18T13:10:22.655Z,-0.40
2022-11-18T13:12:18.138Z,-0.40
2022-11-18T13:14:25.849Z,-0.40
2022-11-18T13:16:43.399Z,-0.40
2022-11-18T13:18:30.438Z,-0.50
2022-11-18T13:20:36.069Z,-0.40
2022-11-18T13:22:42.580Z,-0.50
2022-11-18T13:24:29.713Z,-0.50
2022-11-18T13:26:30.225Z,-0.50
2022-11-18T13:28:42.864Z,-0.50
2022-11-18T13:30:33.628Z,-0.50
2022-11-18T13:32:29.069Z,-0.50
2022-11-18T13:34:23.662Z,-0.50
2022-11-18T13:36:18.408Z,-0.50
2022-11-18T13:38:08.445Z,-0.40
2022-11-18T13:39:56.380Z,-0.40
2022-11-18T13:41:43.608Z,-0.40
2022-11-18T13:43:36.035Z,-0.40
2022-11-18T13:45:29.894Z,-0.40
2022-11-18T13:47:37.339Z,-0.40
2022-11-18T13:49:31.572Z,-0.40
2022-11-18T13:51:19.233Z,-0.40
2022-11-18T13:53:19.217Z,-0.50
2022-11-18T13:55:21.521Z,-0.50
2022-11-18T13:57:18.583Z,-0.40
2022-11-18T13:59:21.343Z,-0.50
2022-11-18T14:01:25.004Z,-0.40
2022-11-18T14:03:34.586Z,-0.50
2022-11-18T14:05:22.026Z,-0.40
2022-11-18T14:07:29.990Z,-0.40
2022-11-18T14:09:31.530Z,-0.50
2022-11-18T14:11:35.682Z,-0.50
2022-11-18T14:13:27.357Z,-0.50
2022-11-18T14:15:42.150Z,-0.50
2022-11-18T14:17:30.851Z,-0.50
2022-11-18T14:19:31.480Z,-0.50
2022-11-18T14:21:33.560Z,-0.50
2022-11-18T14:23:29.813Z,-0.40
2022-11-18T14:25:33.331Z,-0.50
2022-11-18T14:27:42.105Z,-0.50
2022-11-18T14:29:29.214Z,-0.50
2022-11-18T14:31:19.628Z,-0.50
2022-11-18T14:33:11.460Z,-0.50
2022-11-18T14:35:00.961Z,-0.50
2022-11-18T14:37:03.555Z,-0.50
2022-11-18T14:39:25.840Z,-0.50
2022-11-18T14:41:03.583Z,-0.50
2022-11-18T14:42:55.091Z,-0.50
2022-11-18T14:45:08.140Z,-0.50
2022-11-18T14:47:02.982Z,-0.50
2022-11-18T14:48:50.235Z,-0.50
2022-11-18T14:50:37.586Z,-0.50
2022-11-18T14:52:24.674Z,-0.60
2022-11-18T14:54:22.325Z,-0.50
2022-11-18T14:56:18.558Z,-0.60
2022-11-18T14:58:05.752Z,-0.60
2022-11-18T14:59:52.888Z,-0.60
2022-11-18T15:01:41.508Z,-0.60
2022-11-18T15:03:29.144Z,-0.60
2022-11-18T15:05:16.782Z,-0.60
2022-11-18T15:07:04.129Z,-0.60
2022-11-18T15:08:52.968Z,-0.60
2022-11-18T15:10:40.335Z,-0.60
2022-11-18T15:12:27.837Z,-0.60
2022-11-18T15:14:15.263Z,-0.60
2022-11-18T15:16:11.544Z,-0.60
2022-11-18T15:17:58.810Z,-0.60
2022-11-18T15:19:45.883Z,-0.70
2022-11-18T15:21:33.483Z,-0.70
2022-11-18T15:23:23.505Z,-0.60
2022-11-18T15:25:12.999Z,-0.60
2022-11-18T15:27:05.097Z,-0.60
2022-11-18T15:28:57.825Z,-0.60
2022-11-18T15:30:45.513Z,-0.60
2022-11-18T15:32:32.676Z,-0.70
2022-11-18T15:34:21.631Z,-0.70
2022-11-18T15:36:17.564Z,-0.70
2022-11-18T15:38:04.726Z,-0.70
2022-11-18T15:39:52.056Z,-0.70
2022-11-18T15:41:40.909Z,-0.70
2022-11-18T15:43:27.978Z,-0.70
2022-11-18T15:45:15.436Z,-0.70
2022-11-18T15:47:03.015Z,-0.70
2022-11-18T15:48:55.182Z,-0.70
2022-11-18T15:50:42.858Z,-0.70
2022-11-18T15:52:30.108Z,-0.80
2022-11-18T15:54:17.701Z,-0.80
2022-11-18T15:56:23.629Z,-0.80
2022-11-18T15:58:10.755Z,-0.80
2022-11-18T15:59:58.056Z,-0.80
2022-11-18T16:01:49.065Z,-0.80
2022-11-18T16:03:36.626Z,-0.80
2022-11-18T16:05:23.814Z,-0.70
2022-11-18T16:07:11.401Z,-0.80
2022-11-18T16:09:00.214Z,-0.80
2022-11-18T16:11:13.973Z,-0.80
2022-11-18T16:13:01.524Z,-0.80
2022-11-18T16:15:08.585Z,-0.80
2022-11-18T16:16:57.050Z,-0.80
2022-11-18T16:18:44.511Z,-0.80
2022-11-18T16:20:31.590Z,-0.80
2022-11-18T16:22:18.744Z,-0.80
2022-11-18T16:24:08.698Z,-0.80
2022-11-18T16:25:55.775Z,-0.80
2022-11-18T16:27:42.922Z,-0.80
2022-11-18T16:29:30.357Z,-0.90
2022-11-18T16:31:36.470Z,-0.90
2022-11-18T16:33:23.981Z,-0.90
2022-11-18T16:35:11.375Z,-0.80
2022-11-18T16:37:02.228Z,-0.90
2022-11-18T16:38:49.312Z,-0.90
2022-11-18T16:40:36.758Z,-0.90
2022-11-18T16:42:24.091Z,-0.90
2022-11-18T16:44:13.951Z,-1.00
2022-11-18T16:46:01.416Z,-1.00
2022-11-18T16:47:48.566Z,-1.00
2022-11-18T16:49:36.453Z,-1.00
2022-11-18T16:51:28.612Z,-1.00
2022-11-18T16:53:15.631Z,-1.00
2022-11-18T16:55:02.730Z,-1.00
2022-11-18T16:56:50.877Z,-1.10
2022-11-18T16:58:37.929Z,-1.10
2022-11-18T17:00:51.362Z,-1.10
2022-11-18T17:02:33.224Z,-1.10
2022-11-18T17:04:21.495Z,-1.10
2022-11-18T17:06:09.412Z,-1.10
2022-11-18T17:07:56.868Z,-1.10
2022-11-18T17:09:44.363Z,-1.20
2022-11-18T17:11:31.677Z,-1.20
2022-11-18T17:13:18.974Z,-1.20
2022-11-18T17:15:06.553Z,-1.20
2022-11-18T17:16:53.905Z,-1.10
2022-11-18T17:18:42.127Z,-1.20
2022-11-18T17:20:29.749Z,-1.20
2022-11-18T17:22:17.228Z,-1.20
2022-11-18T17:24:05.194Z,-1.20
2022-11-18T17:25:52.961Z,-1.30
2022-11-18T17:27:41.804Z,-1.20
2022-11-18T17:29:29.564Z,-1.30
2022-11-18T17:31:19.508Z,-1.30
2022-11-18T17:33:07.558Z,-1.30
2022-11-18T17:34:55.045Z,-1.30
2022-11-18T17:36:43.258Z,-1.30
2022-11-18T17:38:31.917Z,-1.30
2022-11-18T17:40:20.103Z,-1.30
2022-11-18T17:42:17.711Z,-1.30
2022-11-18T17:44:07.719Z,-1.40
2022-11-18T17:45:57.689Z,-1.40
2022-11-18T17:47:48.038Z,-1.40
2022-11-18T17:49:35.446Z,-1.40
2022-11-18T17:51:24.346Z,-1.40
2022-11-18T17:53:12.177Z,-1.40
2022-11-18T17:55:00.796Z,-1.40
2022-11-18T17:56:48.678Z,-1.40
2022-11-18T17:58:36.579Z,-1.40
2022-11-18T18:00:24.953Z,-1.40
2022-11-18T18:02:13.316Z,-1.40
2022-11-18T18:04:00.839Z,-1.40
2022-11-18T18:05:47.963Z,-1.40
2022-11-18T18:07:35.487Z,-1.40
2022-11-18T18:09:28.488Z,-1.40
2022-11-18T18:11:19.319Z,-1.40
2022-11-18T18:13:27.178Z,-1.40
2022-11-18T18:15:15.194Z,-1.40
2022-11-18T18:17:02.348Z,-1.40
2022-11-18T18:18:50.089Z,-1.40
2022-11-18T18:20:37.357Z,-1.40
2022-11-18T18:22:24.936Z,-1.40
2022-11-18T18:24:17.565Z,-1.40
2022-11-18T18:26:07.854Z,-1.40
2022-11-18T18:27:55.294Z,-1.40
2022-11-18T18:29:42.939Z,-1.40
2022-11-18T18:31:33.911Z,-1.40
2022-11-18T18:33:21.141Z,-1.40
2022-11-18T18:35:08.897Z,-1.40
2022-11-18T18:36:56.041Z,-1.40
2022-11-18T18:38:44.093Z,-1.40
2022-11-18T18:40:32.449Z,-1.40
2022-11-18T18:42:19.401Z,-1.40
2022-11-18T18:44:06.691Z,-1.40
2022-11-18T18:46:18.521Z,-1.40
2022-11-18T18:48:05.717Z,-1.40
2022-11-18T18:49:53.032Z,-1.40
2022-11-18T18:51:41.867Z,-1.40
2022-11-18T18:53:31.067Z,-1.40
2022-11-18T18:55:18.449Z,-1.40
2022-11-18T18:57:05.836Z,-1.40
2022-11-18T18:58:54.278Z,-1.40
2022-11-18T19:00:41.524Z,-1.40
2022-11-18T19:02:29.447Z,-1.30
2022-11-18T19:04:17.611Z,-1.30
2022-11-18T19:06:54.912Z,-1.40
2022-11-18T19:08:41.854Z,-1.40
2022-11-18T19:10:29.499Z,-1.40
2022-11-18T19:12:35.136Z,-1.40
2022-11-18T19:14:23.459Z,-1.50
2022-11-18T19:16:10.596Z,-1.40
2022-11-18T19:17:58.070Z,-1.40
2022-11-18T19:20:04.167Z,-1.40
2022-11-18T19:21:51.326Z,-1.40
2022-11-18T19:23:38.493Z,-1.30
2022-11-18T19:25:25.749Z,-1.30
2022-11-18T19:27:13.442Z,-1.40
2022-11-18T19:29:00.918Z,-1.40
2022-11-18T19:30:48.309Z,-1.50
2022-11-18T19:32:37.027Z,-1.50
2022-11-18T19:34:28.155Z,-1.60
2022-11-18T19:36:16.011Z,-1.60
2022-11-18T19:38:03.977Z,-1.60
2022-11-18T19:39:53.041Z,-1.60
2022-11-18T19:41:46.860Z,-1.60
2022-11-18T19:43:35.547Z,-1.60
2022-11-18T19:45:24.177Z,-1.60
2022-11-18T19:47:11.816Z,-1.60
2022-11-18T19:48:59.155Z,-1.60
2022-11-18T19:50:46.568Z,-1.60
2022-11-18T19:52:34.175Z,-1.60
2022-11-18T19:54:21.412Z,-1.70
2022-11-18T19:56:14.800Z,-1.60
2022-11-18T19:58:02.343Z,-1.60
2022-11-18T19:59:49.656Z,-1.70
2022-11-18T20:01:36.998Z,-1.70
2022-11-18T20:03:24.573Z,-1.70
2022-11-18T20:05:30.218Z,-1.70
2022-11-18T20:07:17.641Z,-1.70
2022-11-18T20:09:10.141Z,-1.70
2022-11-18T20:11:09.035Z,-1.80
2022-11-18T20:12:57.905Z,-1.80
2022-11-18T20:14:45.815Z,-1.70
2022-11-18T20:16:33.816Z,-1.70
2022-11-18T20:18:23.462Z,-1.80
2022-11-18T20:20:11.402Z,-1.80
2022-11-18T20:21:58.693Z,-1.80
2022-11-18T20:23:56.393Z,-1.70
2022-11-18T20:25:43.855Z,-1.70
2022-11-18T20:27:30.973Z,-1.80
2022-11-18T20:29:18.848Z,-1.80
2022-11-18T20:31:09.392Z,-1.80
2022-11-18T20:32:59.286Z,-1.90
2022-11-18T20:34:47.219Z,-1.90
2022-11-18T20:36:36.892Z,-2.00
2022-11-18T20:38:24.044Z,-2.00
2022-11-18T20:40:11.860Z,-2.00
2022-11-18T20:42:18.081Z,-2.00
2022-11-18T20:44:05.551Z,-2.00
2022-11-18T20:45:55.888Z,-2.00
2022-11-18T20:47:43.407Z,-2.00
2022-11-18T20:49:30.471Z,-2.00
2022-11-18T20:51:25.853Z,-1.80
2022-11-18T20:53:14.253Z,-1.70
2022-11-18T20:55:05.586Z,-1.70
2022-11-18T20:56:53.636Z,-1.80
2022-11-18T20:58:41.280Z,-1.90
2022-11-18T21:00:28.408Z,-2.00
2022-11-18T21:02:15.586Z,-2.00
2022-11-18T21:04:03.597Z,-2.10
2022-11-18T21:05:50.836Z,-2.10
2022-11-18T21:07:37.998Z,-2.10
2022-11-18T21:09:25.663Z,-2.10
2022-11-18T21:11:14.159Z,-2.20
2022-11-18T21:13:20.265Z,-2.20
2022-11-18T21:15:08.066Z,-2.20
2022-11-18T21:17:03.258Z,-2.10
2022-11-18T21:18:50.387Z,-2.10
2022-11-18T21:20:56.479Z,-2.20
2022-11-18T21:22:43.637Z,-2.20
2022-11-18T21:24:33.242Z,-2.20
2022-11-18T21:26:20.674Z,-2.20
2022-11-18T21:28:07.765Z,-2.30
2022-11-18T21:29:54.851Z,-2.30
2022-11-18T21:31:43.353Z,-2.30
2022-11-18T21:33:30.475Z,-2.40
2022-11-18T21:35:17.569Z,-2.40
2022-11-18T21:37:05.509Z,-2.40
2022-11-18T21:38:53.131Z,-2.50
2022-11-18T21:40:40.780Z,-2.50
2022-11-18T21:42:28.732Z,-2.60
2022-11-18T21:44:16.093Z,-2.60
2022-11-18T21:46:05.783Z,-2.60
2022-11-18T21:47:53.602Z,-2.70
2022-11-18T21:49:41.174Z,-2.70
2022-11-18T21:51:28.666Z,-2.70
2022-11-18T21:53:16.295Z,-2.80
2022-11-18T21:55:04.016Z,-2.80
2022-11-18T21:56:52.701Z,-2.80
2022-11-18T21:58:40.399Z,-2.80
2022-11-18T22:00:27.561Z,-2.90
2022-11-18T22:02:15.150Z,-2.90
2022-11-18T22:04:04.761Z,-2.90
2022-11-18T22:05:55.228Z,-3.00
2022-11-18T22:07:42.536Z,-3.00
2022-11-18T22:09:35.824Z,-2.90
2022-11-18T22:11:25.592Z,-2.90
2022-11-18T22:13:12.824Z,-2.90
2022-11-18T22:15:00.187Z,-2.90
2022-11-18T22:16:47.269Z,-2.90
2022-11-18T22:18:36.411Z,-2.90
2022-11-18T22:20:23.775Z,-2.90
2022-11-18T22:22:11.003Z,-3.00
2022-11-18T22:24:00.409Z,-3.00
2022-11-18T22:25:55.217Z,-3.00
2022-11-18T22:27:42.301Z,-3.00
2022-11-18T22:29:29.961Z,-3.00
2022-11-18T22:31:20.339Z,-3.00
2022-11-18T22:33:07.825Z,-3.00
2022-11-18T22:34:56.133Z,-3.00
2022-11-18T22:36:43.784Z,-3.00
2022-11-18T22:38:31.216Z,-3.00
2022-11-18T22:40:18.492Z,-3.00
2022-11-18T22:42:24.290Z,-3.00
2022-11-18T22:44:14.849Z,-3.00
2022-11-18T22:46:04.105Z,-3.00
2022-11-18T22:47:51.572Z,-3.10
2022-11-18T22:49:38.630Z,-3.10
2022-11-18T22:51:26.308Z,-3.10
2022-11-18T22:53:13.607Z,-3.10
2022-11-18T22:55:00.831Z,-3.20
2022-11-18T22:56:47.968Z,-3.20
2022-11-18T22:58:35.852Z,-3.20
2022-11-18T23:00:23.096Z,-3.20
2022-11-18T23:02:10.276Z,-3.20
2022-11-18T23:03:58.342Z,-3.30
2022-11-18T23:05:45.984Z,-3.20
2022-11-18T23:07:33.178Z,-3.30
2022-11-18T23:09:20.942Z,-3.30
2022-11-18T23:11:11.702Z,-3.30
2022-11-18T23:13:18.006Z,-3.30
2022-11-18T23:15:05.911Z,-3.30
2022-11-18T23:16:53.105Z,-3.30
2022-11-18T23:18:40.289Z,-3.30
2022-11-18T23:20:27.680Z,-3.30
2022-11-18T23:22:14.847Z,-3.30
2022-11-18T23:24:02.274Z,-3.30
2022-11-18T23:25:49.548Z,-3.20
2022-11-18T23:27:36.585Z,-3.20
2022-11-18T23:29:23.644Z,-3.30
2022-11-18T23:31:17.061Z,-3.30
2022-11-18T23:33:04.175Z,-3.30
2022-11-18T23:34:51.269Z,-3.30
2022-11-18T23:36:39.033Z,-3.30
2022-11-18T23:38:28.327Z,-3.30
2022-11-18T23:40:15.882Z,-3.30
2022-11-18T23:42:03.319Z,-3.30
2022-11-18T23:43:52.158Z,-3.20
2022-11-18T23:45:39.373Z,-3.20
2022-11-18T23:47:27.758Z,-3.30
2022-11-18T23:49:14.945Z,-3.30
2022-11-18T23:51:16.855Z,-3.30
2022-11-18T23:53:04.318Z,-3.40
2022-11-18T23:54:53.106Z,-3.40
2022-11-18T23:56:40.325Z,-3.40
2022-11-18T23:58:27.819Z,-3.40
